Time;durP1;ratioP1;P1;durP2;ratioP2;P2;SDS_P1;SDS_P2;PMS_P1;PMS_P2;Temp;Humidity;BMP_temperature;BMP_pressure;BME280_temperature;BME280_humidity;BME280_pressure;Samples;Min_cycle;Max_cycle;Signal;HPM_P1;HPM_P2
2022/04/19 00:00:52;;;;;;;8.68;4.97;;;11.60;93.50;;;;;;5032739;28;20089;-76
2022/04/19 00:03:18;;;;;;;8.45;5.50;;;11.70;93.30;;;;;;5033188;28;20448;-76
2022/04/19 00:05:44;;;;;;;8.55;5.35;;;11.80;93.40;;;;;;5032739;28;20502;-75
2022/04/19 00:08:11;;;;;;;8.23;4.72;;;11.80;93.40;;;;;;5032740;28;20476;-76
2022/04/19 00:10:38;;;;;;;12.00;6.55;;;11.80;93.60;;;;;;5032745;28;20050;-75
2022/04/19 00:13:05;;;;;;;11.23;5.13;;;11.80;93.50;;;;;;5032784;28;20041;-76
2022/04/19 00:15:32;;;;;;;9.90;5.30;;;11.90;93.60;;;;;;5032583;28;20045;-76
2022/04/19 00:17:59;;;;;;;9.43;5.35;;;11.90;93.50;;;;;;5032830;28;20041;-75
2022/04/19 00:20:25;;;;;;;12.32;5.80;;;11.80;93.50;;;;;;5032513;28;20408;-76
2022/04/19 00:22:52;;;;;;;10.32;5.80;;;11.80;93.60;;;;;;5032620;28;20075;-76
2022/04/19 00:25:18;;;;;;;10.45;5.18;;;11.70;93.70;;;;;;5032496;28;20045;-75
2022/04/19 00:27:44;;;;;;;9.38;5.93;;;11.60;93.90;;;;;;5032648;28;20041;-76
2022/04/19 00:30:10;;;;;;;9.10;5.03;;;11.50;94.00;;;;;;5032519;28;20063;-75
2022/04/19 00:32:37;;;;;;;9.63;5.25;;;11.40;93.90;;;;;;5032478;28;20045;-75
2022/04/19 00:35:05;;;;;;;11.65;5.78;;;11.40;94.00;;;;;;5032502;28;20053;-75
2022/04/19 00:37:32;;;;;;;10.25;5.80;;;11.50;94.00;;;;;;5032457;28;20053;-76
2022/04/19 00:39:58;;;;;;;10.85;6.18;;;11.40;93.90;;;;;;5016105;28;20202;-76
2022/04/19 00:42:33;;;;;;;11.15;5.63;;;11.50;94.00;;;;;;5032493;28;20581;-76
2022/04/19 00:45:04;;;;;;;12.88;5.65;;;11.60;94.00;;;;;;5032279;28;20057;-76
2022/04/19 00:47:32;;;;;;;10.93;5.95;;;11.60;93.90;;;;;;5032414;28;20053;-76
2022/04/19 00:50:01;;;;;;;9.93;5.57;;;11.60;94.00;;;;;;5032483;28;20053;-76
2022/04/19 00:52:32;;;;;;;10.00;5.63;;;11.70;94.10;;;;;;5032322;28;20050;-76
2022/04/19 00:55:06;;;;;;;12.95;6.57;;;11.60;94.00;;;;;;5032599;28;20099;-76
2022/04/19 00:57:33;;;;;;;11.55;6.43;;;11.70;93.90;;;;;;5032986;28;20488;-76
2022/04/19 00:59:58;;;;;;;12.02;6.22;;;11.80;94.10;;;;;;5036094;28;20473;-76
2022/04/19 01:02:25;;;;;;;10.35;5.75;;;11.60;94.00;;;;;;5019719;28;20107;-76
2022/04/19 01:04:55;;;;;;;10.30;5.75;;;11.60;94.10;;;;;;5036183;28;20088;-75
2022/04/19 01:07:22;;;;;;;9.70;5.63;;;11.50;94.10;;;;;;5036218;28;20041;-75
2022/04/19 01:09:48;;;;;;;11.57;6.18;;;11.40;94.30;;;;;;5036338;28;20056;-75
2022/04/19 01:15:06;;;;;;;13.65;6.00;;;11.10;94.40;;;;;;5035214;28;20107;-76
2022/04/19 01:17:40;;;;;;;9.13;5.50;;;11.10;94.50;;;;;;5035886;28;20089;-76
2022/04/19 01:20:10;;;;;;;11.30;6.15;;;11.10;94.80;;;;;;5035962;28;20041;-75
2022/04/19 01:22:37;;;;;;;11.27;6.22;;;11.10;94.80;;;;;;5035676;28;20132;-75
2022/04/19 01:25:04;;;;;;;13.02;7.50;;;11.00;94.90;;;;;;5035696;28;20057;-75
2022/04/19 01:27:30;;;;;;;11.18;7.00;;;10.80;94.90;;;;;;5035635;28;20108;-76
2022/04/19 01:30:02;;;;;;;13.60;6.85;;;10.70;95.00;;;;;;5019209;28;20049;-76
2022/04/19 01:32:28;;;;;;;12.30;6.53;;;10.70;95.10;;;;;;5035373;28;20571;-76
2022/04/19 01:35:15;;;;;;;12.18;6.30;;;10.70;95.30;;;;;;5035960;28;20136;-76
2022/04/19 01:37:43;;;;;;;11.18;6.50;;;10.80;95.30;;;;;;5035478;28;20108;-76
2022/04/19 01:40:18;;;;;;;12.52;6.47;;;10.70;95.30;;;;;;5035276;28;20502;-76
2022/04/19 01:42:49;;;;;;;10.00;5.95;;;10.70;95.40;;;;;;5035457;28;20041;-76
2022/04/19 01:45:20;;;;;;;13.32;6.50;;;10.70;95.50;;;;;;5035008;28;20412;-76
2022/04/19 01:47:46;;;;;;;10.85;6.65;;;10.80;95.50;;;;;;5035365;28;20045;-76
2022/04/19 01:50:14;;;;;;;10.40;6.20;;;10.80;95.40;;;;;;5035277;28;20472;-76
2022/04/19 01:52:41;;;;;;;9.60;6.55;;;10.60;95.50;;;;;;5035191;28;20048;-76
2022/04/19 01:55:09;;;;;;;10.18;6.45;;;10.60;95.60;;;;;;5018765;28;20080;-76
2022/04/19 01:57:36;;;;;;;13.95;7.15;;;10.60;95.70;;;;;;5035191;28;20041;-76
2022/04/19 02:00:05;;;;;;;10.90;6.60;;;10.70;95.60;;;;;;5034954;28;20046;-76
2022/04/19 02:02:31;;;;;;;9.95;6.35;;;10.80;95.60;;;;;;5035041;28;20152;-76
2022/04/19 02:04:57;;;;;;;12.77;5.97;;;10.80;95.50;;;;;;5035080;28;20045;-76
2022/04/19 02:07:23;;;;;;;9.38;6.20;;;10.70;95.60;;;;;;5034924;28;20480;-76
2022/04/19 02:09:52;;;;;;;8.90;5.95;;;10.60;95.80;;;;;;5033428;28;20053;-75
2022/04/19 02:12:18;;;;;;;12.57;6.60;;;10.50;95.60;;;;;;5034584;28;20052;-75
2022/04/19 02:14:44;;;;;;;8.82;5.95;;;10.40;95.60;;;;;;5034163;28;20053;-76
2022/04/19 02:17:09;;;;;;;11.65;6.55;;;10.30;95.80;;;;;;5034099;28;20042;-76
2022/04/19 02:19:36;;;;;;;10.80;6.38;;;10.20;95.90;;;;;;5034364;28;20124;-76
2022/04/19 02:22:05;;;;;;;11.65;6.15;;;10.20;95.90;;;;;;5017954;28;20138;-76
2022/04/19 02:24:31;;;;;;;10.98;6.57;;;10.10;96.00;;;;;;5034466;28;20191;-76
2022/04/19 02:26:57;;;;;;;12.63;6.32;;;10.10;96.10;;;;;;5034628;28;20559;-76
2022/04/19 02:29:25;;;;;;;11.90;6.40;;;10.00;96.10;;;;;;5034686;28;20061;-76
2022/04/19 02:31:52;;;;;;;10.27;6.18;;;9.90;96.20;;;;;;5034682;28;20060;-76
2022/04/19 02:34:21;;;;;;;11.18;6.80;;;9.80;96.30;;;;;;5034459;28;20056;-76
2022/04/19 02:36:47;;;;;;;11.82;6.32;;;9.70;96.30;;;;;;5034057;28;20050;-76
2022/04/19 02:39:13;;;;;;;12.05;6.55;;;9.60;96.50;;;;;;5034418;28;20045;-76
2022/04/19 02:41:38;;;;;;;11.07;6.68;;;9.50;96.60;;;;;;5034143;28;20116;-76
2022/04/19 02:44:07;;;;;;;10.05;6.25;;;9.40;96.70;;;;;;5034251;28;20045;-76
2022/04/19 02:46:33;;;;;;;13.73;7.15;;;9.40;97.00;;;;;;5017573;28;20053;-76
2022/04/19 02:48:59;;;;;;;13.02;6.93;;;9.40;97.10;;;;;;5017183;28;20053;-76
2022/04/19 02:51:25;;;;;;;13.93;7.18;;;9.60;97.10;;;;;;5034030;28;20052;-76
2022/04/19 02:53:53;;;;;;;10.73;6.57;;;9.60;97.10;;;;;;5017672;28;20398;-76
2022/04/19 02:56:18;;;;;;;12.45;6.90;;;9.60;97.00;;;;;;5034035;28;20088;-76
2022/04/19 02:58:45;;;;;;;10.57;6.65;;;9.70;96.90;;;;;;5033970;28;20453;-76
2022/04/19 03:01:11;;;;;;;9.82;6.50;;;9.80;97.10;;;;;;5017312;28;20072;-76
2022/04/19 03:03:37;;;;;;;10.75;6.68;;;9.70;96.90;;;;;;5033500;28;20045;-75
2022/04/19 03:06:03;;;;;;;14.98;6.80;;;9.70;96.90;;;;;;5033900;28;20111;-76
2022/04/19 03:08:32;;;;;;;13.32;6.63;;;9.70;97.00;;;;;;5033841;28;20041;-76
2022/04/19 03:10:58;;;;;;;11.68;6.93;;;9.70;97.00;;;;;;5033723;28;20525;-76
2022/04/19 03:13:24;;;;;;;11.93;6.40;;;9.70;97.10;;;;;;5033429;28;20110;-76
2022/04/19 03:15:50;;;;;;;12.88;7.25;;;9.70;97.00;;;;;;5033356;28;20049;-76
2022/04/19 03:18:15;;;;;;;13.50;6.97;;;9.60;97.10;;;;;;5033597;28;20045;-76
2022/04/19 03:20:45;;;;;;;10.15;6.70;;;9.70;97.20;;;;;;5032886;28;20074;-76
2022/04/19 03:28:40;;;;;;;10.93;6.07;;;9.60;96.90;;;;;;5033401;28;20469;-76
2022/04/19 03:31:05;;;;;;;12.07;6.82;;;9.50;97.10;;;;;;5033405;28;20092;-75
2022/04/19 03:33:32;;;;;;;12.98;7.28;;;9.50;97.30;;;;;;5033297;28;20084;-76
2022/04/19 03:35:59;;;;;;;12.65;6.40;;;9.50;97.30;;;;;;5033242;28;20080;-76
2022/04/19 03:38:25;;;;;;;11.70;6.72;;;9.40;97.30;;;;;;5033189;28;20106;-75
2022/04/19 03:40:50;;;;;;;14.20;6.35;;;9.40;97.40;;;;;;5032796;28;20407;-76
2022/04/19 03:43:16;;;;;;;13.30;7.43;;;9.50;97.30;;;;;;5033174;28;20492;-76
2022/04/19 03:45:42;;;;;;;12.60;7.20;;;9.60;97.30;;;;;;5032898;28;20068;-76
2022/04/19 03:48:10;;;;;;;15.95;7.20;;;9.60;97.10;;;;;;5016727;28;20052;-76
2022/04/19 03:50:36;;;;;;;13.18;6.90;;;9.70;97.20;;;;;;5033097;28;20132;-76
2022/04/19 03:53:02;;;;;;;11.25;6.50;;;9.70;97.10;;;;;;5033058;28;20140;-76
2022/04/19 03:55:27;;;;;;;12.23;6.90;;;9.70;97.10;;;;;;5032915;28;20374;-75
2022/04/19 03:57:54;;;;;;;13.55;6.05;;;9.70;97.10;;;;;;5032683;28;20049;-76
2022/04/19 04:00:21;;;;;;;12.23;6.97;;;9.70;97.00;;;;;;5032772;28;20054;-76
2022/04/19 04:02:47;;;;;;;11.77;6.75;;;9.60;97.30;;;;;;5033026;28;20107;-75
2022/04/19 04:05:12;;;;;;;15.45;6.95;;;9.60;97.00;;;;;;5032978;28;20492;-75
2022/04/19 04:07:39;;;;;;;10.98;6.18;;;9.50;97.00;;;;;;5032690;28;20046;-75
2022/04/19 04:10:05;;;;;;;12.15;6.90;;;9.50;97.10;;;;;;5032547;28;20507;-75
2022/04/19 04:12:31;;;;;;;14.93;6.85;;;9.50;97.30;;;;;;5032735;28;20049;-76
2022/04/19 04:14:57;;;;;;;14.23;7.22;;;9.40;97.20;;;;;;5032231;28;20485;-76
2022/04/19 04:17:22;;;;;;;11.65;5.97;;;9.40;97.30;;;;;;5015966;28;20053;-76
2022/04/19 04:19:48;;;;;;;12.63;6.55;;;9.40;97.30;;;;;;5016252;28;20484;-76
2022/04/19 04:22:14;;;;;;;13.32;7.07;;;9.40;97.30;;;;;;5032645;28;20388;-75
2022/04/19 04:24:39;;;;;;;13.00;6.90;;;9.30;97.50;;;;;;5032641;28;20050;-77
2022/04/19 04:27:05;;;;;;;12.90;6.38;;;9.30;97.50;;;;;;5032623;28;20384;-75
2022/04/19 04:29:31;;;;;;;12.95;6.72;;;9.30;97.50;;;;;;5032636;28;20389;-75
2022/04/19 04:31:56;;;;;;;13.85;7.30;;;9.20;97.50;;;;;;5032636;28;20492;-76
2022/04/19 04:34:22;;;;;;;11.77;6.85;;;9.10;97.60;;;;;;5036811;28;20469;-75
2022/04/19 04:36:48;;;;;;;11.57;6.43;;;9.10;97.70;;;;;;5036919;28;20388;-76
2022/04/19 04:39:14;;;;;;;15.65;7.45;;;9.10;97.90;;;;;;5036582;28;20045;-76
2022/04/19 04:41:40;;;;;;;12.63;6.63;;;9.10;98.00;;;;;;5020013;28;20045;-76
2022/04/19 04:44:06;;;;;;;13.70;6.82;;;9.10;97.80;;;;;;5036552;28;20187;-76
2022/04/19 04:49:35;;;;;;;13.53;7.17;;;9.20;97.90;;;;;;5015908;28;20052;-75
2022/04/19 04:52:04;;;;;;;13.43;7.28;;;9.30;97.80;;;;;;5036387;28;20060;-75
2022/04/19 04:54:30;;;;;;;14.60;6.93;;;9.30;98.00;;;;;;5036287;28;20044;-76
2022/04/19 04:56:56;;;;;;;14.15;7.18;;;9.40;98.00;;;;;;5036299;28;20053;-75
2022/04/19 04:59:22;;;;;;;13.77;6.65;;;9.40;98.00;;;;;;5036584;28;20100;-75
2022/04/19 05:01:48;;;;;;;13.02;6.93;;;9.40;98.20;;;;;;5036247;28;20129;-76
2022/04/19 05:04:13;;;;;;;14.60;7.40;;;9.50;98.10;;;;;;5003360;28;20085;-75
2022/04/19 05:06:40;;;;;;;11.98;7.22;;;9.60;98.10;;;;;;5036089;28;20045;-75
2022/04/19 05:09:05;;;;;;;13.60;7.35;;;9.60;98.10;;;;;;5036109;28;20133;-75
2022/04/19 05:11:31;;;;;;;13.32;7.30;;;9.60;98.20;;;;;;5036410;28;20056;-75
2022/04/19 05:13:57;;;;;;;14.93;7.28;;;9.70;98.20;;;;;;5019185;28;20488;-75
2022/04/19 05:16:23;;;;;;;13.02;7.18;;;9.90;98.30;;;;;;5035540;28;20053;-76
2022/04/19 05:18:49;;;;;;;16.23;7.75;;;9.90;98.30;;;;;;5019461;28;20504;-75
2022/04/19 05:21:15;;;;;;;14.27;7.00;;;10.00;98.30;;;;;;5019135;28;20049;-76
2022/04/19 05:23:40;;;;;;;15.60;7.00;;;9.90;98.40;;;;;;5035831;28;20154;-76
2022/04/19 05:26:09;;;;;;;14.43;7.50;;;9.90;98.40;;;;;;5035688;28;20128;-76
2022/04/19 05:28:34;;;;;;;15.20;7.35;;;10.10;98.60;;;;;;5035732;28;20045;-75
2022/04/19 05:31:00;;;;;;;15.40;7.80;;;10.20;98.50;;;;;;5019177;28;20046;-75
2022/04/19 05:33:26;;;;;;;14.40;7.35;;;10.20;98.50;;;;;;5035628;28;20044;-76
2022/04/19 05:35:52;;;;;;;16.50;7.97;;;10.30;98.40;;;;;;5035517;28;20071;-76
2022/04/19 05:38:17;;;;;;;12.63;6.93;;;10.40;98.40;;;;;;5019005;28;20057;-76
2022/04/19 05:40:43;;;;;;;14.93;7.72;;;10.50;98.70;;;;;;5035188;28;20166;-76
2022/04/19 05:43:09;;;;;;;15.07;7.18;;;10.60;98.50;;;;;;5035299;28;20119;-75
2022/04/19 05:45:34;;;;;;;14.80;7.55;;;10.60;98.60;;;;;;5035089;28;20045;-76
2022/04/19 05:48:00;;;;;;;18.10;8.23;;;10.70;98.50;;;;;;5035159;28;20045;-76
2022/04/19 05:50:26;;;;;;;15.30;7.90;;;10.80;98.30;;;;;;5034912;28;20484;-75
2022/04/19 05:52:52;;;;;;;16.40;7.57;;;10.90;98.50;;;;;;5035239;28;20041;-76
2022/04/19 05:55:18;;;;;;;13.13;7.28;;;11.00;98.30;;;;;;5035157;28;20049;-75
2022/04/19 05:57:43;;;;;;;17.23;9.27;;;11.20;98.20;;;;;;5035233;28;20045;-75
2022/04/19 06:00:09;;;;;;;15.25;8.95;;;11.30;97.80;;;;;;5034992;28;20044;-75
2022/04/19 06:05:20;;;;;;;14.45;7.65;;;11.50;97.80;;;;;;5035324;28;20100;-75
2022/04/19 06:07:47;;;;;;;17.08;8.60;;;11.60;98.00;;;;;;5018508;28;20092;-75
2022/04/19 06:10:16;;;;;;;17.83;9.45;;;11.80;97.70;;;;;;5034924;28;20522;-76
2022/04/19 06:12:42;;;;;;;16.52;8.45;;;11.80;97.60;;;;;;5034859;28;20053;-76
2022/04/19 06:15:10;;;;;;;16.33;8.85;;;11.70;97.80;;;;;;5034412;28;20140;-76
2022/04/19 06:17:37;;;;;;;16.77;9.73;;;11.80;97.90;;;;;;5034403;28;20049;-76
2022/04/19 06:20:05;;;;;;;18.30;8.85;;;11.80;98.00;;;;;;5034888;28;20057;-76
2022/04/19 06:22:32;;;;;;;15.43;8.45;;;12.00;97.90;;;;;;5034538;28;20053;-76
2022/04/19 06:24:58;;;;;;;18.48;9.75;;;12.10;98.00;;;;;;5034541;28;20057;-76
2022/04/19 06:27:24;;;;;;;16.90;7.97;;;12.10;97.80;;;;;;5034610;28;20053;-76
2022/04/19 06:29:56;;;;;;;19.13;8.98;;;12.00;97.80;;;;;;5034563;28;20077;-83
2022/04/19 06:32:22;;;;;;;16.48;8.45;;;12.10;97.80;;;;;;5034553;28;20110;-70
2022/04/19 06:34:49;;;;;;;19.45;8.70;;;12.10;97.70;;;;;;5035443;28;20124;-71
2022/04/19 06:37:14;;;;;;;13.20;7.65;;;12.20;97.80;;;;;;5035517;28;20041;-72
2022/04/19 06:39:41;;;;;;;16.27;8.52;;;12.30;97.90;;;;;;5034333;28;20369;-70
2022/04/19 06:42:07;;;;;;;16.73;8.52;;;12.40;97.80;;;;;;5035282;28;20045;-72
2022/04/19 06:44:33;;;;;;;15.38;8.23;;;12.40;97.70;;;;;;5035221;28;20052;-73
2022/04/19 06:46:59;;;;;;;14.88;7.72;;;12.50;97.70;;;;;;5033897;28;20156;-72
2022/04/19 06:49:25;;;;;;;19.05;8.18;;;12.60;97.80;;;;;;5035228;28;20085;-72
2022/04/19 06:51:50;;;;;;;14.98;7.70;;;12.80;97.40;;;;;;5033859;28;20049;-72
2022/04/19 06:54:16;;;;;;;13.05;7.70;;;12.80;97.60;;;;;;5035056;28;20045;-73
2022/04/19 06:56:45;;;;;;;16.25;8.18;;;12.80;97.70;;;;;;5036336;28;20057;-75
2022/04/19 06:59:11;;;;;;;14.48;7.28;;;12.90;97.60;;;;;;5042742;28;20454;-73
2022/04/19 07:01:40;;;;;;;13.02;7.45;;;13.00;97.20;;;;;;5033728;28;20080;-73
2022/04/19 07:04:09;;;;;;;13.25;7.70;;;13.00;97.30;;;;;;5033887;28;20045;-75
2022/04/19 07:06:36;;;;;;;14.13;8.35;;;13.00;97.30;;;;;;5034802;28;20049;-75
2022/04/19 07:09:02;;;;;;;13.23;6.88;;;13.30;97.40;;;;;;5033823;28;20041;-75
2022/04/19 07:11:29;;;;;;;13.45;6.97;;;13.30;97.40;;;;;;5033779;28;20085;-75
2022/04/19 07:13:55;;;;;;;12.23;7.00;;;13.50;97.20;;;;;;5033237;28;20053;-75
2022/04/19 07:16:21;;;;;;;17.35;7.45;;;13.60;97.20;;;;;;5033401;28;20060;-76
2022/04/19 07:18:47;;;;;;;15.68;8.27;;;13.60;97.20;;;;;;5033990;28;20507;-75
2022/04/19 07:26:41;;;;;;;16.83;8.43;;;13.60;97.40;;;;;;5033672;28;20060;-76
2022/04/19 07:29:10;;;;;;;14.77;7.38;;;13.70;97.30;;;;;;5049877;28;20079;-75
2022/04/19 07:31:36;;;;;;;15.32;7.90;;;13.60;97.30;;;;;;5033327;28;20057;-75
2022/04/19 07:34:03;;;;;;;16.38;8.50;;;13.80;97.50;;;;;;5033309;28;20049;-75
2022/04/19 07:36:28;;;;;;;13.00;7.65;;;13.90;97.00;;;;;;5034266;28;20115;-74
2022/04/19 07:38:54;;;;;;;14.25;7.93;;;13.90;97.00;;;;;;5034314;28;20057;-75
2022/04/19 07:41:21;;;;;;;12.75;6.45;;;13.80;97.10;;;;;;5033120;28;20469;-73
2022/04/19 07:43:47;;;;;;;12.52;7.50;;;13.90;97.40;;;;;;5034649;28;20049;-83
2022/04/19 07:46:15;;;;;;;13.77;7.30;;;14.00;97.10;;;;;;5032823;28;20061;-69
2022/04/19 07:48:44;;;;;;;14.88;7.03;;;14.10;97.10;;;;;;5034086;28;20081;-70
2022/04/19 07:51:14;;;;;;;11.75;6.53;;;14.20;97.10;;;;;;5034016;28;20045;-70
2022/04/19 07:53:40;;;;;;;10.85;6.28;;;14.30;97.00;;;;;;5033698;28;20503;-70
2022/04/19 07:56:05;;;;;;;11.40;5.75;;;14.20;96.80;;;;;;5033953;28;20045;-70
2022/04/19 07:58:31;;;;;;;14.20;6.40;;;14.20;96.60;;;;;;5034234;28;20103;-71
2022/04/19 08:00:57;;;;;;;12.43;5.93;;;14.30;96.80;;;;;;5033827;28;20538;-71
2022/04/19 08:03:22;;;;;;;15.88;6.22;;;14.30;97.00;;;;;;5033856;28;20054;-74
2022/04/19 08:05:50;;;;;;;13.82;6.80;;;14.50;96.80;;;;;;5033807;28;20400;-72
2022/04/19 08:08:17;;;;;;;9.50;6.00;;;14.60;96.60;;;;;;5032934;28;20116;-70
2022/04/19 08:10:44;;;;;;;14.82;6.28;;;14.60;96.60;;;;;;5033956;28;20045;-70
2022/04/19 08:13:09;;;;;;;15.15;5.82;;;14.60;96.40;;;;;;5033886;28;20132;-70
2022/04/19 08:15:35;;;;;;;16.02;5.13;;;14.30;96.40;;;;;;5033606;28;20490;-70
2022/04/19 08:18:01;;;;;;;9.18;4.65;;;14.60;96.30;;;;;;5034063;28;20510;-69
2022/04/19 08:20:26;;;;;;;6.25;3.38;;;14.80;95.60;;;;;;5032447;28;20184;-71
2022/04/19 08:22:52;;;;;;;6.90;2.80;;;14.90;95.10;;;;;;5033671;28;20407;-70
2022/04/19 08:25:18;;;;;;;6.15;2.42;;;15.00;94.80;;;;;;5033612;28;20041;-70
2022/04/19 08:27:47;;;;;;;5.68;2.53;;;15.10;94.00;;;;;;5032642;28;20376;-70
2022/04/19 08:30:17;;;;;;;9.25;2.88;;;15.30;94.10;;;;;;5033582;28;20449;-72
2022/04/19 08:32:44;;;;;;;4.60;2.13;;;15.50;93.90;;;;;;5033535;28;20053;-77
2022/04/19 08:35:10;;;;;;;4.07;1.95;;;15.60;93.50;;;;;;5032414;28;20499;-74
2022/04/19 08:37:36;;;;;;;4.28;2.10;;;15.60;92.90;;;;;;5032567;28;20049;-75
2022/04/19 08:40:06;;;;;;;9.13;2.45;;;15.60;92.40;;;;;;5032979;28;20057;-75
2022/04/19 08:42:33;;;;;;;3.22;2.05;;;15.70;92.90;;;;;;5033505;28;20045;-73
2022/04/19 08:45:07;;;;;;;3.60;1.77;;;15.70;92.30;;;;;;5033474;28;20049;-72
2022/04/19 08:47:45;;;;;;;3.58;1.45;;;15.70;92.70;;;;;;5033044;28;20132;-73
2022/04/19 08:50:19;;;;;;;2.13;1.30;;;15.90;92.30;;;;;;5049120;28;20076;-72
2022/04/19 08:52:46;;;;;;;5.03;1.60;;;15.90;91.40;;;;;;5033201;28;20463;-72
2022/04/19 08:57:56;;;;;;;4.10;1.27;;;15.90;91.50;;;;;;5033044;28;20587;-70
2022/04/19 09:00:24;;;;;;;3.33;1.23;;;15.80;91.50;;;;;;5033243;28;20128;-72
2022/04/19 09:02:51;;;;;;;2.40;1.15;;;15.90;91.60;;;;;;5033217;28;20056;-70
2022/04/19 09:05:21;;;;;;;3.75;1.50;;;15.90;91.80;;;;;;5032200;28;20063;-70
2022/04/19 09:07:51;;;;;;;4.50;1.20;;;16.00;91.70;;;;;;5033222;28;20137;-70
2022/04/19 09:10:27;;;;;;;4.00;1.80;;;16.20;91.80;;;;;;5032934;28;20508;-70
2022/04/19 09:13:03;;;;;;;4.70;1.63;;;16.10;91.80;;;;;;5033169;28;20068;-69
2022/04/19 09:15:32;;;;;;;2.95;1.50;;;16.40;92.30;;;;;;5049104;28;20053;-74
2022/04/19 09:17:57;;;;;;;3.90;1.42;;;16.50;92.00;;;;;;5033530;28;20088;-73
2022/04/19 09:20:23;;;;;;;5.40;1.60;;;16.70;92.20;;;;;;5035703;28;20457;-73
2022/04/19 09:23:01;;;;;;;3.17;1.83;;;16.60;91.80;;;;;;5035806;28;20046;-72
2022/04/19 09:25:27;;;;;;;3.85;2.05;;;16.70;91.90;;;;;;5036120;28;20068;-72
2022/04/19 09:27:56;;;;;;;4.13;1.80;;;16.70;92.20;;;;;;5035547;28;20056;-73
2022/04/19 09:30:27;;;;;;;5.65;1.90;;;16.70;92.20;;;;;;5036722;28;20128;-73
2022/04/19 09:33:06;;;;;;;3.60;1.83;;;16.90;92.00;;;;;;5036365;28;20500;-70
2022/04/19 09:35:33;;;;;;;3.25;1.70;;;17.10;92.00;;;;;;5036649;28;20050;-72
2022/04/19 09:37:59;;;;;;;4.15;1.90;;;17.30;92.20;;;;;;5036235;28;20493;-71
2022/04/19 09:40:44;;;;;;;4.82;1.60;;;17.50;92.20;;;;;;5036395;28;20037;-71
2022/04/19 09:43:20;;;;;;;5.25;1.70;;;17.70;92.40;;;;;;5036432;28;20111;-71
2022/04/19 09:45:59;;;;;;;2.95;1.55;;;17.90;92.40;;;;;;5036211;28;20080;-72
2022/04/19 09:48:27;;;;;;;3.85;2.30;;;17.90;91.80;;;;;;5036407;28;20041;-71
2022/04/19 09:51:03;;;;;;;4.53;2.40;;;17.70;91.10;;;;;;5036255;28;20041;-71
2022/04/19 09:53:31;;;;;;;3.20;1.90;;;17.60;91.70;;;;;;5035543;28;20129;-71
2022/04/19 09:55:59;;;;;;;5.68;2.15;;;17.60;91.60;;;;;;5036170;28;20080;-72
2022/04/19 09:58:26;;;;;;;3.70;1.90;;;17.80;92.00;;;;;;5035113;28;20115;-79
2022/04/19 10:00:52;;;;;;;3.03;1.88;;;17.80;91.90;;;;;;5035026;28;20399;-73
2022/04/19 10:08:53;;;;;;;5.28;2.00;;;17.70;91.80;;;;;;5034908;28;20045;-74
2022/04/19 10:11:19;;;;;;;6.90;1.67;;;17.80;91.60;;;;;;5035039;28;20088;-76
2022/04/19 10:13:45;;;;;;;3.33;1.55;;;17.90;91.20;;;;;;5034689;28;20453;-74
2022/04/19 10:16:16;;;;;;;2.92;1.55;;;18.30;92.00;;;;;;5019412;28;20049;-74
2022/04/19 10:18:45;;;;;;;5.25;1.95;;;18.40;91.70;;;;;;5035043;28;20081;-70
2022/04/19 10:21:17;;;;;;;4.78;2.25;;;18.50;91.50;;;;;;5035640;28;20048;-71
2022/04/19 10:23:44;;;;;;;4.15;1.98;;;18.50;91.50;;;;;;5035832;28;20128;-72
2022/04/19 10:26:17;;;;;;;4.60;2.03;;;18.60;91.50;;;;;;5034682;28;20056;-72
2022/04/19 10:28:45;;;;;;;3.88;2.05;;;18.80;91.00;;;;;;5034644;28;20061;-72
2022/04/19 10:31:12;;;;;;;4.22;1.90;;;18.90;91.70;;;;;;5034655;28;20049;-71
2022/04/19 10:33:45;;;;;;;4.25;1.92;;;18.70;91.10;;;;;;5038529;28;20576;-74
2022/04/19 10:36:12;;;;;;;3.50;1.88;;;18.80;91.70;;;;;;5034384;28;20045;-72
2022/04/19 10:38:37;;;;;;;3.00;1.60;;;18.90;91.10;;;;;;5035436;28;20128;-69
2022/04/19 10:41:03;;;;;;;6.60;1.90;;;18.80;90.80;;;;;;5035317;28;20179;-70
2022/04/19 10:43:30;;;;;;;2.53;1.70;;;18.70;90.90;;;;;;5034273;28;20366;-70
2022/04/19 10:46:16;;;;;;;5.35;2.10;;;19.10;91.70;;;;;;5034040;28;20064;-70
2022/04/19 10:49:01;;;;;;;;;;;19.50;91.00;;;;;;5035712;28;20128;-70
2022/04/19 10:51:30;;;;;;;6.78;1.83;;;19.70;91.70;;;;;;5034328;28;19971;-70
2022/04/19 10:53:56;;;;;;;4.15;2.28;;;19.40;91.50;;;;;;5034179;28;20093;-69
2022/04/19 10:56:21;;;;;;;6.05;2.30;;;19.50;91.50;;;;;;5034175;28;20437;-69
2022/04/19 10:58:47;;;;;;;4.78;2.60;;;19.80;90.90;;;;;;5033953;28;20061;-69
2022/04/19 11:01:32;;;;;;;4.45;2.50;;;19.70;90.90;;;;;;5033699;28;20049;-69
2022/04/19 11:03:58;;;;;;;4.38;2.47;;;19.90;91.50;;;;;;5034538;28;20080;-70
2022/04/19 11:06:35;;;;;;;4.55;2.20;;;20.10;91.40;;;;;;5034820;28;20063;-68
2022/04/19 11:09:22;;;;;;;5.88;2.08;;;20.10;90.90;;;;;;5034986;28;20056;-76
2022/04/19 11:11:50;;;;;;;5.03;1.98;;;19.80;91.40;;;;;;5033430;28;20544;-79
2022/04/19 11:14:35;;;;;;;2.90;1.80;;;19.40;91.10;;;;;;5033448;28;20485;-79
2022/04/19 11:17:21;;;;;;;4.70;2.20;;;18.80;90.50;;;;;;5033477;28;20132;-79
2022/04/19 11:20:16;;;;;;;5.45;1.98;;;18.90;91.70;;;;;;5033733;28;20057;-79
2022/04/19 11:22:53;;;;;;;2.90;1.60;;;18.80;91.10;;;;;;5016582;28;20049;-79
2022/04/19 11:25:42;;;;;;;4.25;2.15;;;18.80;91.00;;;;;;5033976;28;20392;-81
2022/04/19 11:28:11;;;;;;;6.72;1.90;;;18.70;90.40;;;;;;5033516;28;20095;-79
2022/04/19 11:30:43;;;;;;;3.55;1.88;;;18.40;90.50;;;;;;5033367;28;20049;-75
2022/04/19 11:33:09;;;;;;;2.58;1.70;;;18.30;90.30;;;;;;5033516;28;20052;-75
2022/04/19 11:35:35;;;;;;;4.93;1.70;;;18.50;90.30;;;;;;5033351;28;20045;-75
2022/04/19 11:38:13;;;;;;;4.65;2.00;;;18.80;90.70;;;;;;5033273;28;20084;-75
2022/04/19 11:49:09;;;;;;;3.05;1.77;;;19.70;90.90;;;;;;5033221;28;20140;-76
2022/04/19 11:51:36;;;;;;;4.85;2.05;;;19.30;91.00;;;;;;5033114;28;20114;-76
2022/04/19 11:54:05;;;;;;;2.20;1.80;;;19.50;90.60;;;;;;5033081;28;20042;-78
2022/04/19 11:56:32;;;;;;;4.38;1.73;;;19.20;90.20;;;;;;5033328;28;20191;-80
2022/04/19 11:59:00;;;;;;;6.47;1.77;;;19.60;90.20;;;;;;5032989;28;20060;-78
2022/04/19 12:01:26;;;;;;;3.60;1.55;;;19.70;89.70;;;;;;5032597;28;20041;-80
2022/04/19 12:03:52;;;;;;;4.88;1.70;;;19.40;90.00;;;;;;5016608;28;20060;-78
2022/04/19 12:06:19;;;;;;;2.85;1.77;;;19.50;90.80;;;;;;5032875;28;20049;-79
2022/04/19 12:08:50;;;;;;;4.25;1.50;;;19.40;90.00;;;;;;5032843;28;20076;-82
2022/04/19 12:11:18;;;;;;;2.75;1.83;;;19.60;90.50;;;;;;5032878;28;20054;-80
2022/04/19 12:13:49;;;;;;;4.13;1.90;;;19.80;90.20;;;;;;5032617;28;20061;-84
2022/04/19 12:16:31;;;;;;;2.97;1.75;;;20.00;90.00;;;;;;5032470;28;20053;-80
2022/04/19 12:19:03;;;;;;;3.95;1.40;;;19.90;90.60;;;;;;5032663;28;20052;-79
2022/04/19 12:21:48;;;;;;;2.97;1.50;;;20.20;90.60;;;;;;5032944;28;20472;-81
2022/04/19 12:24:21;;;;;;;5.38;1.83;;;20.10;90.40;;;;;;5032929;28;20128;-80
2022/04/19 12:27:05;;;;;;;2.60;1.50;;;20.30;90.10;;;;;;5032855;28;20111;-85
2022/04/19 12:29:31;;;;;;;3.95;2.10;;;20.60;91.10;;;;;;5033318;28;20215;-80
2022/04/19 12:31:58;;;;;;;6.32;2.10;;;20.70;91.00;;;;;;5033883;28;20556;-80
2022/04/19 12:34:37;;;;;;;2.83;1.83;;;20.60;90.80;;;;;;5016586;28;20096;-81
2022/04/19 12:37:16;;;;;;;3.47;1.73;;;20.20;90.20;;;;;;5032243;28;20056;-81
2022/04/19 12:39:55;;;;;;;2.03;1.33;;;20.50;90.80;;;;;;5032408;28;20064;-82
2022/04/19 12:42:21;;;;;;;4.65;1.75;;;20.70;90.50;;;;;;5031998;28;20045;-84
2022/04/19 12:45:05;;;;;;;3.80;1.73;;;20.40;90.10;;;;;;5032211;28;20211;-84
2022/04/19 12:47:31;;;;;;;4.03;1.80;;;19.70;89.60;;;;;;5032174;28;20176;-84
2022/04/19 12:49:58;;;;;;;2.78;1.67;;;19.80;89.70;;;;;;5015111;28;20128;-78
2022/04/19 12:52:31;;;;;;;3.40;1.70;;;19.80;90.20;;;;;;5031638;28;20484;-82
2022/04/19 12:54:59;;;;;;;5.47;1.85;;;19.90;90.30;;;;;;5034562;28;20053;-85
2022/04/19 12:57:25;;;;;;;3.88;1.30;;;19.90;90.60;;;;;;5035459;28;20079;-71
2022/04/19 12:59:51;;;;;;;4.15;1.40;;;20.70;90.30;;;;;;5037020;28;20139;-71
2022/04/19 13:02:19;;;;;;;5.13;1.92;;;21.40;90.10;;;;;;5037127;28;20064;-78
2022/04/19 13:04:48;;;;;;;4.18;2.35;;;21.60;89.90;;;;;;5036355;28;20050;-76
2022/04/19 13:12:44;;;;;;;5.72;2.50;;;21.30;90.00;;;;;;5036225;28;20060;-82
2022/04/19 13:15:10;;;;;;;5.03;2.47;;;21.00;90.30;;;;;;5035240;28;20051;-82
2022/04/19 13:17:39;;;;;;;3.38;2.20;;;21.10;90.10;;;;;;5035152;28;20138;-83
2022/04/19 13:20:09;;;;;;;5.18;2.72;;;21.20;90.10;;;;;;5035887;28;20049;-83
2022/04/19 13:22:36;;;;;;;5.57;2.20;;;21.20;90.20;;;;;;5035758;28;20061;-83
2022/04/19 13:25:07;;;;;;;4.82;2.40;;;20.90;90.00;;;;;;5035810;28;20049;-84
2022/04/19 13:27:36;;;;;;;5.65;2.40;;;20.80;89.60;;;;;;5036442;28;20046;-84
2022/04/19 13:30:07;;;;;;;3.35;2.00;;;20.90;90.30;;;;;;5019941;28;20521;-85